createdAt,value
2018-12-22T00:00:41.072Z,9.54
2018-12-22T00:03:09.482Z,9.51
2018-12-22T00:05:37.853Z,9.57
2018-12-22T00:08:05.401Z,9.58
2018-12-22T00:10:34.604Z,9.60
2018-12-22T00:13:02.376Z,9.53
2018-12-22T00:15:29.875Z,9.54
2018-12-22T00:17:57.396Z,9.54
2018-12-22T00:20:25.086Z,9.51
2018-12-22T00:22:53.720Z,9.51
2018-12-22T00:25:21.636Z,9.50
2018-12-22T00:27:49.990Z,9.48
2018-12-22T00:30:17.907Z,9.44
2018-12-22T00:32:45.627Z,9.42
2018-12-22T00:37:54.749Z,9.32
2018-12-22T00:40:22.375Z,9.32
2018-12-22T00:42:49.969Z,9.30
2018-12-22T00:45:17.747Z,9.27
2018-12-22T00:47:46.505Z,9.24
2018-12-22T00:50:14.012Z,9.26
2018-12-22T00:52:41.492Z,9.28
2018-12-22T00:55:09.034Z,9.24
2018-12-22T00:57:36.579Z,9.30
2018-12-22T01:00:06.213Z,9.32
2018-12-22T01:02:33.708Z,9.32
2018-12-22T01:05:01.318Z,9.30
2018-12-22T01:07:28.991Z,9.29
2018-12-22T01:09:56.792Z,9.29
2018-12-22T01:12:24.663Z,9.26
2018-12-22T01:14:52.438Z,9.22
2018-12-22T01:17:20.068Z,9.23
2018-12-22T01:19:47.652Z,9.24
2018-12-22T01:22:15.335Z,9.26
2018-12-22T01:24:42.796Z,9.24
2018-12-22T01:27:10.362Z,9.23
2018-12-22T01:29:37.800Z,9.23
2018-12-22T01:32:05.264Z,9.23
2018-12-22T01:34:32.830Z,9.23
2018-12-22T01:37:00.620Z,9.18
2018-12-22T01:39:28.279Z,9.20
2018-12-22T01:41:56.207Z,9.24
2018-12-22T01:44:23.771Z,9.25
2018-12-22T01:46:51.417Z,9.28
2018-12-22T01:49:18.888Z,9.24
2018-12-22T01:51:46.391Z,9.16
2018-12-22T01:54:13.890Z,9.15
2018-12-22T01:56:41.404Z,9.15
2018-12-22T01:59:09.126Z,9.19
2018-12-22T02:01:36.738Z,9.16
2018-12-22T02:04:04.570Z,9.14
2018-12-22T02:06:32.115Z,9.15
2018-12-22T02:08:59.858Z,9.15
2018-12-22T02:11:27.343Z,9.14
2018-12-22T02:13:54.889Z,9.16
2018-12-22T02:16:22.432Z,9.11
2018-12-22T02:18:49.906Z,9.08
2018-12-22T02:21:17.386Z,9.10
2018-12-22T02:23:44.832Z,9.12
2018-12-22T02:26:12.556Z,9.09
2018-12-22T02:28:40.063Z,9.04
2018-12-22T02:31:07.561Z,9.08
2018-12-22T02:33:35.272Z,9.10
2018-12-22T02:36:02.871Z,9.12
2018-12-22T02:38:30.331Z,9.02
2018-12-22T02:40:57.878Z,9.01
2018-12-22T02:43:25.549Z,9.07
2018-12-22T02:45:53.019Z,9.06
2018-12-22T02:48:20.502Z,8.98
2018-12-22T02:50:48.026Z,8.97
2018-12-22T02:53:15.584Z,9.05
2018-12-22T02:55:43.245Z,9.10
2018-12-22T02:58:10.875Z,9.09
2018-12-22T03:00:38.373Z,9.12
2018-12-22T03:03:05.887Z,9.09
2018-12-22T03:05:33.333Z,9.08
2018-12-22T03:08:00.796Z,9.01
2018-12-22T03:10:28.268Z,9.06
2018-12-22T03:12:55.851Z,9.11
2018-12-22T03:15:23.397Z,9.10
2018-12-22T03:17:50.866Z,9.06
2018-12-22T03:20:19.499Z,9.10
2018-12-22T03:22:47.083Z,9.01
2018-12-22T03:25:14.664Z,9.02
2018-12-22T03:27:42.364Z,8.97
2018-12-22T03:30:09.861Z,8.95
2018-12-22T03:32:37.349Z,8.92
2018-12-22T03:35:05.572Z,8.87
2018-12-22T03:37:33.007Z,8.85
2018-12-22T03:40:00.494Z,8.88
2018-12-22T03:42:27.907Z,8.88
2018-12-22T03:44:55.442Z,8.87
2018-12-22T03:47:22.939Z,8.82
2018-12-22T03:49:50.412Z,8.85
2018-12-22T03:52:18.258Z,8.91
2018-12-22T03:54:45.883Z,8.95
2018-12-22T03:57:13.458Z,8.89
2018-12-22T03:59:40.958Z,8.90
2018-12-22T04:02:08.503Z,8.89
2018-12-22T04:04:36.030Z,8.87
2018-12-22T04:07:03.535Z,8.82
2018-12-22T04:09:31.622Z,8.76
2018-12-22T04:11:59.109Z,8.78
2018-12-22T04:14:26.750Z,8.81
2018-12-22T04:16:54.338Z,8.89
2018-12-22T04:19:22.221Z,8.93
2018-12-22T04:21:51.324Z,8.92
2018-12-22T04:24:18.926Z,9.01
2018-12-22T04:26:46.395Z,9.08
2018-12-22T04:29:13.871Z,9.09
2018-12-22T04:31:41.397Z,9.13
2018-12-22T04:34:09.310Z,9.15
2018-12-22T04:36:36.859Z,9.20
2018-12-22T04:39:06.904Z,9.27
2018-12-22T04:41:34.414Z,9.31
2018-12-22T04:44:01.990Z,9.25
2018-12-22T04:46:29.836Z,9.33
2018-12-22T04:48:57.420Z,9.32
2018-12-22T04:51:24.912Z,9.33
2018-12-22T04:53:52.477Z,9.30
2018-12-22T04:56:19.996Z,9.31
2018-12-22T04:58:47.471Z,9.29
2018-12-22T05:01:14.971Z,9.25
2018-12-22T05:03:42.403Z,9.20
2018-12-22T05:06:09.858Z,9.14
2018-12-22T05:08:37.384Z,9.19
2018-12-22T05:11:04.945Z,9.25
2018-12-22T05:13:32.599Z,9.23
2018-12-22T05:16:00.193Z,9.33
2018-12-22T05:18:27.689Z,9.37
2018-12-22T05:20:55.195Z,9.37
2018-12-22T05:23:22.668Z,9.30
2018-12-22T05:25:50.113Z,9.37
2018-12-22T05:28:17.566Z,9.39
2018-12-22T05:30:45.021Z,9.41
2018-12-22T05:33:12.481Z,9.41
2018-12-22T05:35:39.980Z,9.40
2018-12-22T05:38:07.551Z,9.38
2018-12-22T05:40:35.054Z,9.38
2018-12-22T05:43:02.558Z,9.40
2018-12-22T05:45:30.021Z,9.45
2018-12-22T05:47:57.508Z,9.38
2018-12-22T05:50:24.945Z,9.38
2018-12-22T05:52:52.400Z,9.34
2018-12-22T05:55:19.867Z,9.29
2018-12-22T05:57:47.335Z,9.29
2018-12-22T06:00:14.945Z,9.36
2018-12-22T06:02:42.425Z,9.40
2018-12-22T06:05:11.021Z,9.42
2018-12-22T06:07:38.579Z,9.39
2018-12-22T06:10:07.470Z,9.42
2018-12-22T06:12:34.968Z,9.33
2018-12-22T06:15:02.443Z,9.33
2018-12-22T06:17:29.906Z,9.31
2018-12-22T06:19:57.426Z,9.32
2018-12-22T06:22:24.860Z,9.28
2018-12-22T06:24:52.371Z,9.27
2018-12-22T06:27:19.856Z,9.28
2018-12-22T06:29:47.383Z,9.29
2018-12-22T06:32:14.919Z,9.23
2018-12-22T06:34:43.286Z,9.21
2018-12-22T06:37:10.750Z,9.24
2018-12-22T06:39:38.197Z,9.27
2018-12-22T06:42:05.669Z,9.27
2018-12-22T06:44:33.156Z,9.29
2018-12-22T06:47:00.615Z,9.31
2018-12-22T06:49:28.241Z,9.26
2018-12-22T06:51:55.875Z,9.34
2018-12-22T06:54:23.351Z,9.34
2018-12-22T06:56:50.933Z,9.22
2018-12-22T06:59:19.484Z,9.21
2018-12-22T07:01:47.044Z,9.20
2018-12-22T07:04:14.713Z,9.22
2018-12-22T07:06:42.168Z,9.29
2018-12-22T07:09:09.671Z,9.30
2018-12-22T07:11:37.230Z,9.26
2018-12-22T07:14:05.052Z,9.20
2018-12-22T07:16:32.579Z,9.22
2018-12-22T07:19:00.219Z,9.27
2018-12-22T07:21:27.690Z,9.28
2018-12-22T07:23:55.192Z,9.27
2018-12-22T07:26:22.777Z,9.17
2018-12-22T07:28:50.376Z,9.19
2018-12-22T07:31:17.824Z,9.16
2018-12-22T07:33:45.319Z,9.16
2018-12-22T07:36:12.788Z,9.18
2018-12-22T07:38:40.238Z,9.17
2018-12-22T07:41:07.697Z,9.16
2018-12-22T07:43:35.170Z,9.19
2018-12-22T07:46:02.735Z,9.16
2018-12-22T07:48:30.215Z,9.21
2018-12-22T07:50:57.694Z,9.10
2018-12-22T07:53:25.265Z,9.06
2018-12-22T07:55:52.784Z,9.07
2018-12-22T07:58:20.307Z,9.04
2018-12-22T08:00:47.781Z,9.08
2018-12-22T08:03:15.501Z,9.13
2018-12-22T08:05:43.049Z,9.15
2018-12-22T08:08:10.540Z,9.14
2018-12-22T08:10:38.003Z,9.11
2018-12-22T08:13:05.873Z,9.04
2018-12-22T08:15:33.471Z,9.08
2018-12-22T08:18:01.220Z,9.05
2018-12-22T08:20:28.764Z,8.98
2018-12-22T08:22:56.427Z,8.83
2018-12-22T08:25:23.962Z,8.81
2018-12-22T08:27:51.463Z,8.89
2018-12-22T08:30:19.038Z,8.94
2018-12-22T08:32:46.631Z,8.95
2018-12-22T08:35:14.105Z,8.85
2018-12-22T08:37:41.640Z,8.95
2018-12-22T08:40:09.806Z,8.97
2018-12-22T08:42:37.497Z,8.98
2018-12-22T08:45:06.554Z,8.98
2018-12-22T08:47:34.199Z,8.89
2018-12-22T08:50:09.115Z,8.85
2018-12-22T08:52:32.040Z,8.74
2018-12-22T08:54:59.525Z,8.74
2018-12-22T08:57:27.023Z,8.71
2018-12-22T08:59:54.520Z,8.67
2018-12-22T09:02:21.975Z,8.69
2018-12-22T09:04:49.464Z,8.79
2018-12-22T09:07:16.936Z,8.75
2018-12-22T09:09:44.638Z,8.79
2018-12-22T09:12:12.136Z,8.87
2018-12-22T09:14:39.900Z,8.94
2018-12-22T09:17:07.453Z,8.88
2018-12-22T09:19:34.971Z,8.83
2018-12-22T09:22:02.490Z,8.86
2018-12-22T09:24:29.991Z,8.96
2018-12-22T09:26:57.437Z,9.04
2018-12-22T09:29:24.950Z,9.01
2018-12-22T09:31:52.846Z,8.98
2018-12-22T09:34:20.345Z,8.88
2018-12-22T09:36:47.834Z,8.79
2018-12-22T09:39:15.395Z,8.73
2018-12-22T09:41:43.010Z,8.73
2018-12-22T09:44:10.932Z,8.78
2018-12-22T09:46:38.506Z,8.72
2018-12-22T09:49:06.104Z,8.70
2018-12-22T09:51:33.534Z,8.81
2018-12-22T09:54:01.013Z,8.80
2018-12-22T09:56:28.621Z,8.79
2018-12-22T09:58:56.139Z,8.77
2018-12-22T10:01:23.699Z,8.83
2018-12-22T10:03:51.188Z,8.80
2018-12-22T10:06:18.733Z,8.77
2018-12-22T10:08:46.276Z,8.77
2018-12-22T10:11:13.809Z,8.83
2018-12-22T10:13:41.396Z,8.77
2018-12-22T10:16:08.986Z,8.79
2018-12-22T10:18:36.788Z,8.85
2018-12-22T10:21:04.657Z,8.87
2018-12-22T10:23:32.175Z,8.92
2018-12-22T10:25:59.661Z,8.86
2018-12-22T10:28:28.534Z,8.82
2018-12-22T10:30:56.041Z,8.86
2018-12-22T10:33:23.697Z,8.85
2018-12-22T10:35:51.244Z,8.76
2018-12-22T10:38:18.925Z,8.82
2018-12-22T10:40:46.493Z,8.78
2018-12-22T10:43:14.043Z,8.78
2018-12-22T10:45:41.650Z,8.72
2018-12-22T10:48:09.448Z,8.72
2018-12-22T10:50:37.012Z,8.75
2018-12-22T10:53:04.460Z,8.85
2018-12-22T10:55:31.972Z,8.85
2018-12-22T10:58:00.058Z,8.95
2018-12-22T11:00:27.767Z,8.98
2018-12-22T11:02:55.206Z,8.88
2018-12-22T11:05:22.670Z,8.83
2018-12-22T11:07:50.200Z,8.78
2018-12-22T11:10:17.767Z,8.75
2018-12-22T11:12:45.253Z,8.84
2018-12-22T11:15:12.922Z,8.88
2018-12-22T11:17:40.455Z,8.82
2018-12-22T11:20:08.816Z,8.81
2018-12-22T11:22:36.396Z,8.76
2018-12-22T11:25:10.508Z,8.66
2018-12-22T11:27:38.078Z,8.70
2018-12-22T11:30:09.557Z,8.77
2018-12-22T11:32:37.071Z,8.81
2018-12-22T11:35:05.285Z,8.86
2018-12-22T11:37:32.756Z,8.88
2018-12-22T11:40:00.200Z,8.83
2018-12-22T11:42:27.676Z,8.97
2018-12-22T11:44:55.401Z,8.88
2018-12-22T11:47:27.129Z,8.87
2018-12-22T11:49:54.708Z,8.98
2018-12-22T11:52:22.253Z,9.03
2018-12-22T11:54:49.763Z,9.04
2018-12-22T11:57:18.060Z,8.98
2018-12-22T11:59:45.563Z,8.98
2018-12-22T12:02:13.099Z,9.05
2018-12-22T12:04:42.097Z,9.06
2018-12-22T12:07:09.854Z,8.82
2018-12-22T12:09:37.374Z,8.86
2018-12-22T12:12:04.887Z,8.71
2018-12-22T12:14:32.600Z,8.78
2018-12-22T12:17:01.789Z,8.80
2018-12-22T12:19:29.531Z,8.71
2018-12-22T12:21:59.028Z,8.61
2018-12-22T12:24:26.609Z,8.68
2018-12-22T12:26:54.394Z,8.72
2018-12-22T12:29:21.898Z,8.72
2018-12-22T12:31:52.256Z,8.66
2018-12-22T12:34:19.073Z,8.67
2018-12-22T12:36:46.564Z,8.73
2018-12-22T12:39:14.035Z,8.70
2018-12-22T12:41:41.598Z,8.67
2018-12-22T12:44:09.205Z,8.70
2018-12-22T12:46:36.852Z,8.74
2018-12-22T12:49:04.328Z,8.78
2018-12-22T12:51:31.806Z,8.80
2018-12-22T12:53:59.448Z,8.81
2018-12-22T12:56:27.177Z,8.80
2018-12-22T12:58:54.777Z,8.67
2018-12-22T13:01:24.327Z,8.76
2018-12-22T13:03:51.974Z,8.75
2018-12-22T13:06:19.488Z,8.81
2018-12-22T13:08:47.053Z,8.78
2018-12-22T13:11:15.396Z,8.85
2018-12-22T13:13:46.481Z,8.91
2018-12-22T13:16:14.031Z,8.96
2018-12-22T13:18:55.967Z,8.99
2018-12-22T13:21:23.528Z,8.89
2018-12-22T13:23:52.305Z,8.94
2018-12-22T13:26:19.954Z,8.99
2018-12-22T13:28:47.543Z,9.04
2018-12-22T13:31:15.495Z,9.01
2018-12-22T13:33:43.218Z,9.02
2018-12-22T13:36:10.817Z,8.96
2018-12-22T13:38:38.761Z,8.99
2018-12-22T13:41:06.220Z,9.01
2018-12-22T13:43:33.664Z,8.96
2018-12-22T13:46:01.128Z,8.91
2018-12-22T13:48:28.606Z,8.93
2018-12-22T13:50:56.231Z,8.96
2018-12-22T13:53:24.125Z,8.91
2018-12-22T13:55:51.603Z,8.90
2018-12-22T13:58:19.095Z,8.84
2018-12-22T14:00:46.726Z,8.89
2018-12-22T14:03:15.645Z,8.94
2018-12-22T14:05:43.415Z,8.99
2018-12-22T14:08:11.032Z,9.06
2018-12-22T14:10:38.739Z,9.11
2018-12-22T14:13:06.190Z,9.17
2018-12-22T14:15:34.097Z,9.21
2018-12-22T14:18:22.337Z,9.25
2018-12-22T14:20:49.906Z,9.28
2018-12-22T14:25:48.424Z,9.29
2018-12-22T14:28:16.058Z,9.33
2018-12-22T14:30:44.278Z,9.39
2018-12-22T14:33:11.894Z,9.40
2018-12-22T14:35:39.544Z,9.44
2018-12-22T14:38:07.371Z,9.47
2018-12-22T14:40:35.098Z,9.46
2018-12-22T14:43:02.701Z,9.43
2018-12-22T14:45:30.231Z,9.47
2018-12-22T14:47:57.716Z,9.46
2018-12-22T14:50:25.251Z,9.52
2018-12-22T14:52:52.705Z,9.53
2018-12-22T14:55:20.246Z,9.54
2018-12-22T14:57:53.332Z,9.55
2018-12-22T15:00:20.794Z,9.56
2018-12-22T15:02:48.302Z,9.53
2018-12-22T15:05:16.837Z,9.63
2018-12-22T15:07:44.292Z,9.62
2018-12-22T15:10:11.971Z,9.62
2018-12-22T15:12:39.474Z,9.63
2018-12-22T15:15:10.279Z,9.68
2018-12-22T15:17:42.829Z,9.64
2018-12-22T15:20:23.649Z,9.64
2018-12-22T15:22:51.269Z,9.57
2018-12-22T15:25:20.246Z,9.59
2018-12-22T15:27:48.142Z,9.62
2018-12-22T15:30:15.659Z,9.62
2018-12-22T15:32:46.288Z,9.61
2018-12-22T15:35:12.811Z,9.59
2018-12-22T15:37:41.114Z,9.58
2018-12-22T15:40:10.712Z,9.54
2018-12-22T15:42:38.679Z,9.51
2018-12-22T15:45:16.447Z,9.51
2018-12-22T15:47:44.872Z,9.46
2018-12-22T15:50:31.612Z,9.44
2018-12-22T15:52:59.572Z,9.42
2018-12-22T15:55:27.106Z,9.45
2018-12-22T15:57:54.790Z,9.40
2018-12-22T16:00:22.403Z,9.42
2018-12-22T16:02:53.388Z,9.37
2018-12-22T16:05:19.555Z,9.35
2018-12-22T16:07:47.122Z,9.29
2018-12-22T16:10:15.978Z,9.26
2018-12-22T16:12:43.452Z,9.27
2018-12-22T16:15:13.799Z,9.24
2018-12-22T16:17:41.538Z,9.26
2018-12-22T16:20:11.249Z,9.25
2018-12-22T16:22:41.823Z,9.27
2018-12-22T16:25:11.914Z,9.18
2018-12-22T16:27:39.895Z,9.21
2018-12-22T16:30:15.091Z,9.22
2018-12-22T16:32:42.667Z,9.22
2018-12-22T16:35:10.150Z,9.15
2018-12-22T16:37:37.648Z,9.19
2018-12-22T16:40:08.852Z,9.20
2018-12-22T16:42:36.334Z,9.23
2018-12-22T16:45:07.828Z,9.23
2018-12-22T16:47:35.301Z,9.18
2018-12-22T16:50:05.579Z,9.16
2018-12-22T16:52:33.059Z,9.19
2018-12-22T16:55:05.017Z,9.16
2018-12-22T16:57:32.598Z,9.14
2018-12-22T17:00:00.953Z,9.16
2018-12-22T17:02:28.912Z,9.18
2018-12-22T17:04:56.508Z,9.19
2018-12-22T17:07:24.020Z,9.16
2018-12-22T17:09:51.519Z,9.17
2018-12-22T17:12:19.127Z,9.13
2018-12-22T17:14:46.824Z,9.17
2018-12-22T17:17:14.479Z,9.18
2018-12-22T17:19:42.001Z,9.20
2018-12-22T17:22:09.514Z,9.16
2018-12-22T17:24:37.029Z,9.24
2018-12-22T17:27:04.715Z,9.27
2018-12-22T17:29:32.214Z,9.31
2018-12-22T17:31:59.730Z,9.25
2018-12-22T17:34:27.288Z,9.23
2018-12-22T17:36:54.815Z,9.17
2018-12-22T17:39:22.324Z,9.21
2018-12-22T17:41:49.860Z,9.38
2018-12-22T17:44:17.319Z,9.42
2018-12-22T17:46:44.789Z,9.38
2018-12-22T17:49:12.287Z,9.29
2018-12-22T17:51:39.946Z,9.23
2018-12-22T17:54:07.504Z,9.20
2018-12-22T17:56:35.048Z,9.16
2018-12-22T17:59:02.600Z,9.17
2018-12-22T18:01:30.128Z,9.11
2018-12-22T18:03:57.618Z,9.12
2018-12-22T18:06:25.256Z,9.15
2018-12-22T18:08:53.652Z,9.14
2018-12-22T18:11:21.150Z,9.13
2018-12-22T18:13:48.741Z,9.08
2018-12-22T18:16:16.325Z,9.06
2018-12-22T18:18:43.858Z,9.08
2018-12-22T18:21:11.372Z,9.03
2018-12-22T18:23:38.914Z,9.05
2018-12-22T18:26:06.544Z,9.08
2018-12-22T18:28:36.055Z,9.08
2018-12-22T18:31:03.842Z,9.03
2018-12-22T18:33:35.942Z,9.07
2018-12-22T18:36:00.879Z,9.03
2018-12-22T18:38:28.352Z,9.03
2018-12-22T18:40:55.874Z,9.06
2018-12-22T18:43:23.557Z,9.05
2018-12-22T18:45:51.218Z,8.98
2018-12-22T18:48:18.769Z,8.95
2018-12-22T18:50:46.858Z,9.00
2018-12-22T18:53:14.306Z,8.93
2018-12-22T18:55:41.997Z,8.96
2018-12-22T18:58:09.729Z,8.94
2018-12-22T19:00:37.219Z,8.95
2018-12-22T19:03:04.738Z,8.98
2018-12-22T19:05:32.368Z,8.98
2018-12-22T19:07:59.929Z,9.00
2018-12-22T19:10:31.039Z,8.88
2018-12-22T19:12:58.538Z,8.80
2018-12-22T19:15:29.719Z,8.82
2018-12-22T19:17:58.281Z,8.89
2018-12-22T19:20:30.600Z,8.92
2018-12-22T19:22:58.138Z,8.93
2018-12-22T19:25:26.886Z,8.96
2018-12-22T19:27:54.451Z,8.95
2018-12-22T19:30:22.213Z,8.86
2018-12-22T19:32:49.828Z,8.83
2018-12-22T19:35:18.070Z,8.81
2018-12-22T19:37:46.019Z,8.87
2018-12-22T19:40:13.736Z,8.88
2018-12-22T19:42:41.220Z,8.93
2018-12-22T19:45:08.902Z,8.88
2018-12-22T19:47:36.770Z,8.86
2018-12-22T19:50:06.216Z,8.85
2018-12-22T19:52:33.711Z,8.89
2018-12-22T19:55:01.216Z,8.79
2018-12-22T19:57:28.764Z,8.74
2018-12-22T19:59:57.092Z,8.74
2018-12-22T20:02:24.654Z,8.75
2018-12-22T20:04:52.194Z,8.72
2018-12-22T20:07:19.835Z,8.74
2018-12-22T20:09:47.671Z,8.75
2018-12-22T20:12:15.380Z,8.78
2018-12-22T20:14:43.199Z,8.67
2018-12-22T20:17:10.690Z,8.66
2018-12-22T20:19:38.150Z,8.62
2018-12-22T20:24:59.267Z,8.65
2018-12-22T20:27:26.789Z,8.69
2018-12-22T20:29:54.332Z,8.73
2018-12-22T20:32:21.938Z,8.69
2018-12-22T20:34:49.631Z,8.64
2018-12-22T20:37:17.591Z,8.65
2018-12-22T20:39:45.172Z,8.59
2018-12-22T20:42:12.664Z,8.59
2018-12-22T20:44:40.195Z,8.57
2018-12-22T20:47:08.532Z,8.60
2018-12-22T20:49:36.031Z,8.62
2018-12-22T20:52:03.701Z,8.61
2018-12-22T20:54:31.240Z,8.65
2018-12-22T20:56:58.824Z,8.66
2018-12-22T20:59:26.380Z,8.64
2018-12-22T21:01:54.634Z,8.63
2018-12-22T21:04:22.244Z,8.64
2018-12-22T21:06:52.398Z,8.55
2018-12-22T21:09:20.389Z,8.63
2018-12-22T21:11:47.885Z,8.54
2018-12-22T21:14:15.416Z,8.49
2018-12-22T21:16:43.568Z,8.56
2018-12-22T21:19:11.032Z,8.59
2018-12-22T21:21:38.505Z,8.58
2018-12-22T21:24:06.271Z,8.54
2018-12-22T21:26:34.713Z,8.53
2018-12-22T21:29:02.466Z,8.54
2018-12-22T21:31:29.980Z,8.50
2018-12-22T21:33:58.687Z,8.50
2018-12-22T21:36:26.291Z,8.43
2018-12-22T21:38:53.881Z,8.39
2018-12-22T21:41:21.389Z,8.42
2018-12-22T21:43:48.901Z,8.47
2018-12-22T21:46:16.371Z,8.47
2018-12-22T21:48:51.460Z,8.46
2018-12-22T21:51:19.610Z,8.51
2018-12-22T21:53:47.094Z,8.49
2018-12-22T21:56:14.608Z,8.53
2018-12-22T21:58:42.073Z,8.43
2018-12-22T22:01:09.514Z,8.46
2018-12-22T22:03:37.320Z,8.46
2018-12-22T22:06:04.783Z,8.52
2018-12-22T22:08:32.222Z,8.46
2018-12-22T22:10:59.695Z,8.49
2018-12-22T22:13:27.175Z,8.53
2018-12-22T22:15:55.196Z,8.54
2018-12-22T22:18:22.788Z,8.62
2018-12-22T22:20:52.318Z,8.68
2018-12-22T22:23:19.807Z,8.69
2018-12-22T22:25:47.312Z,8.69
2018-12-22T22:28:14.814Z,8.76
2018-12-22T22:30:42.330Z,8.77
2018-12-22T22:33:09.802Z,8.77
2018-12-22T22:35:37.244Z,8.80
2018-12-22T22:38:04.729Z,8.82
2018-12-22T22:40:32.204Z,8.72
2018-12-22T22:43:00.288Z,8.77
2018-12-22T22:45:27.899Z,8.75
2018-12-22T22:47:55.409Z,8.77
2018-12-22T22:50:22.895Z,8.79
2018-12-22T22:52:50.320Z,8.81
2018-12-22T22:55:17.791Z,8.83
2018-12-22T22:57:45.327Z,8.89
2018-12-22T23:00:14.890Z,8.86
2018-12-22T23:02:42.332Z,8.84
2018-12-22T23:05:09.828Z,8.81
2018-12-22T23:07:37.383Z,8.83
2018-12-22T23:10:07.055Z,8.86
2018-12-22T23:12:34.639Z,8.85
2018-12-22T23:15:02.188Z,8.90
2018-12-22T23:17:29.810Z,8.85
2018-12-22T23:19:57.284Z,8.85
2018-12-22T23:22:24.819Z,8.83
2018-12-22T23:24:52.305Z,8.83
2018-12-22T23:27:19.763Z,8.81
2018-12-22T23:29:47.271Z,8.81
2018-12-22T23:32:14.839Z,8.80
2018-12-22T23:34:42.537Z,8.86
2018-12-22T23:37:10.029Z,8.89
2018-12-22T23:39:37.594Z,8.92
2018-12-22T23:42:06.133Z,8.88
2018-12-22T23:44:33.709Z,8.92
2018-12-22T23:47:01.193Z,8.86
2018-12-22T23:49:28.657Z,8.87
2018-12-22T23:51:56.167Z,8.89
2018-12-22T23:54:24.033Z,8.98
2018-12-22T23:56:51.539Z,8.99
2018-12-22T23:59:20.681Z,9.00
